Time;durP1;ratioP1;P1;durP2;ratioP2;P2;SDS_P1;SDS_P2;PMS_P1;PMS_P2;Temp;Humidity;BMP_temperature;BMP_pressure;BME280_temperature;BME280_humidity;BME280_pressure;Samples;Min_cycle;Max_cycle;Signal;HPM_P1;HPM_P2
2023/03/18 00:02:27;;;;;;;23.70;14.63;;;;;;;;;;10501649;28;20444;-85
2023/03/18 00:07:29;;;;;;;20.30;13.67;;;;;;;;;;10501177;28;21317;-85
2023/03/18 00:12:33;;;;;;;20.40;13.47;;;;;;;;;;10491044;28;20429;-84
2023/03/18 00:17:36;;;;;;;20.88;14.07;;;;;;;;;;10488489;28;20435;-85
2023/03/18 00:22:39;;;;;;;21.67;13.82;;;;;;;;;;10485328;28;20871;-85
2023/03/18 00:27:42;;;;;;;24.48;15.27;;;;;;;;;;10487869;28;20802;-85
2023/03/18 00:32:45;;;;;;;26.58;16.50;;;;;;;;;;10501042;28;20450;-85
2023/03/18 00:37:47;;;;;;;23.63;16.87;;;;;;;;;;10513680;28;20431;-85
2023/03/18 00:42:56;;;;;;;24.58;16.63;;;;;;;;;;10485018;28;20422;-84
2023/03/18 00:47:58;;;;;;;25.63;17.10;;;;;;;;;;10512056;28;20932;-85
2023/03/18 00:53:00;;;;;;;24.73;17.20;;;;;;;;;;10517129;28;20790;-85
2023/03/18 00:58:03;;;;;;;27.35;18.02;;;;;;;;;;10499532;28;20429;-85
2023/03/18 01:03:05;;;;;;;27.60;17.55;;;;;;;;;;10511813;28;20474;-86
2023/03/18 01:08:07;;;;;;;29.20;17.30;;;;;;;;;;10512097;28;20439;-86
2023/03/18 01:13:10;;;;;;;25.50;17.33;;;;;;;;;;10492728;28;20926;-86
2023/03/18 01:18:12;;;;;;;28.23;17.63;;;;;;;;;;10510740;28;20454;-86
2023/03/18 01:23:14;;;;;;;28.02;17.45;;;;;;;;;;10507571;28;20426;-85
2023/03/18 01:28:17;;;;;;;27.25;17.85;;;;;;;;;;10491925;28;20406;-84
2023/03/18 01:33:19;;;;;;;27.40;17.83;;;;;;;;;;10487698;28;20602;-86
2023/03/18 01:38:22;;;;;;;27.55;17.65;;;;;;;;;;10516552;28;20448;-85
2023/03/18 01:43:28;;;;;;;24.15;16.05;;;;;;;;;;10494813;28;20445;-84
2023/03/18 01:48:34;;;;;;;27.23;15.48;;;;;;;;;;10516692;28;20959;-86
2023/03/18 01:53:44;;;;;;;21.95;14.85;;;;;;;;;;10508147;28;20442;-85
2023/03/18 01:58:51;;;;;;;21.87;14.03;;;;;;;;;;10495242;28;20466;-85
2023/03/18 02:03:54;;;;;;;22.08;14.77;;;;;;;;;;10508277;28;20505;-85
2023/03/18 02:08:56;;;;;;;21.07;14.50;;;;;;;;;;10507225;28;20588;-85
2023/03/18 02:14:00;;;;;;;23.20;14.50;;;;;;;;;;10494343;28;20415;-85
2023/03/18 02:19:14;;;;;;;22.70;14.70;;;;;;;;;;10520478;28;20406;-86
2023/03/18 02:24:24;;;;;;;25.38;15.15;;;;;;;;;;10502608;28;20494;-85
2023/03/18 02:29:31;;;;;;;23.45;15.18;;;;;;;;;;10497581;28;20414;-85
2023/03/18 02:34:34;;;;;;;23.80;14.87;;;;;;;;;;10497979;28;20555;-85
2023/03/18 02:39:36;;;;;;;22.50;15.15;;;;;;;;;;10495737;28;20481;-85
2023/03/18 02:44:43;;;;;;;19.90;13.33;;;;;;;;;;10491327;28;20399;-86
2023/03/18 02:49:45;;;;;;;21.40;13.03;;;;;;;;;;10510413;28;20490;-86
2023/03/18 02:54:47;;;;;;;21.20;14.17;;;;;;;;;;10511516;28;20430;-85
2023/03/18 02:59:50;;;;;;;21.50;13.77;;;;;;;;;;10514089;28;20402;-85
2023/03/18 03:04:52;;;;;;;22.10;14.50;;;;;;;;;;10494356;28;20440;-85
2023/03/18 03:09:55;;;;;;;22.58;14.98;;;;;;;;;;10498258;28;20404;-86
2023/03/18 03:14:58;;;;;;;23.05;14.77;;;;;;;;;;10504740;28;20879;-85
2023/03/18 03:20:00;;;;;;;22.10;14.27;;;;;;;;;;10523683;28;20396;-85
2023/03/18 03:25:02;;;;;;;21.40;14.57;;;;;;;;;;10497436;28;20404;-85
2023/03/18 03:30:09;;;;;;;23.33;14.20;;;;;;;;;;10504097;28;20924;-85
2023/03/18 03:35:12;;;;;;;25.48;14.77;;;;;;;;;;10527097;28;20470;-85
2023/03/18 03:40:16;;;;;;;25.85;14.75;;;;;;;;;;10499812;28;20808;-86
2023/03/18 03:45:20;;;;;;;22.75;14.75;;;;;;;;;;10505209;28;20799;-86
2023/03/18 03:50:22;;;;;;;23.13;14.70;;;;;;;;;;10515041;28;20479;-86
2023/03/18 03:55:24;;;;;;;22.58;14.65;;;;;;;;;;10510620;28;20514;-85
2023/03/18 04:00:28;;;;;;;24.98;13.63;;;;;;;;;;10500592;28;20398;-85
2023/03/18 04:05:30;;;;;;;24.23;14.95;;;;;;;;;;10489192;28;20421;-85
2023/03/18 04:10:33;;;;;;;24.07;15.47;;;;;;;;;;10495917;28;20455;-86
2023/03/18 04:15:36;;;;;;;22.58;14.90;;;;;;;;;;10503448;28;20458;-86
2023/03/18 04:20:39;;;;;;;22.67;15.25;;;;;;;;;;10513255;28;20463;-85
2023/03/18 04:25:40;;;;;;;23.23;15.43;;;;;;;;;;10496966;28;20434;-85
2023/03/18 04:30:44;;;;;;;26.35;16.02;;;;;;;;;;10504157;28;20934;-85
2023/03/18 04:35:47;;;;;;;26.27;16.13;;;;;;;;;;10509204;28;20520;-85
2023/03/18 04:40:49;;;;;;;23.90;14.68;;;;;;;;;;10505427;28;20409;-86
2023/03/18 04:45:52;;;;;;;24.73;15.65;;;;;;;;;;10499668;28;20428;-85
2023/03/18 04:50:54;;;;;;;23.40;15.35;;;;;;;;;;10489948;28;20417;-85
2023/03/18 04:55:56;;;;;;;22.03;14.30;;;;;;;;;;10429702;28;2022711;-85
2023/03/18 05:01:00;;;;;;;24.30;15.95;;;;;;;;;;10506708;28;20402;-85
2023/03/18 05:06:02;;;;;;;22.63;14.13;;;;;;;;;;10505545;28;20825;-85
2023/03/18 05:11:05;;;;;;;21.60;13.95;;;;;;;;;;10490085;28;20398;-85
2023/03/18 05:16:08;;;;;;;22.17;14.65;;;;;;;;;;10504153;28;20432;-85
2023/03/18 05:21:10;;;;;;;25.02;16.20;;;;;;;;;;10500273;28;20430;-85
2023/03/18 05:26:12;;;;;;;24.40;16.58;;;;;;;;;;10495300;28;20457;-84
2023/03/18 05:31:16;;;;;;;25.80;17.02;;;;;;;;;;10510031;28;20484;-84
2023/03/18 05:36:18;;;;;;;26.77;16.13;;;;;;;;;;10500655;28;20414;-85
2023/03/18 05:41:19;;;;;;;25.40;16.60;;;;;;;;;;10495633;28;20475;-85
2023/03/18 05:46:23;;;;;;;30.65;18.77;;;;;;;;;;10505366;28;20452;-85
2023/03/18 05:51:25;;;;;;;29.53;18.00;;;;;;;;;;10501783;28;21135;-85
2023/03/18 05:56:27;;;;;;;28.05;18.15;;;;;;;;;;10517258;28;20491;-84
2023/03/18 06:01:31;;;;;;;28.23;18.80;;;;;;;;;;10531315;28;20403;-85
2023/03/18 06:06:34;;;;;;;28.33;18.80;;;;;;;;;;10509444;28;20782;-86
2023/03/18 06:11:36;;;;;;;29.15;18.77;;;;;;;;;;10511474;28;20408;-87
2023/03/18 06:21:57;;;;;;;30.20;19.23;;;;;;;;;;10510309;28;20415;-88
2023/03/18 06:27:00;;;;;;;29.92;18.85;;;;;;;;;;10510773;28;20500;-88
2023/03/18 06:32:03;;;;;;;31.30;19.45;;;;;;;;;;10503209;28;20798;-88
2023/03/18 06:37:05;;;;;;;29.10;18.67;;;;;;;;;;10510964;28;20906;-86
2023/03/18 06:42:08;;;;;;;30.63;18.77;;;;;;;;;;10509497;28;20570;-86
2023/03/18 06:47:12;;;;;;;30.53;18.43;;;;;;;;;;10487427;28;20460;-86
2023/03/18 06:52:14;;;;;;;30.70;19.65;;;;;;;;;;10486269;28;20449;-86
2023/03/18 06:57:16;;;;;;;32.00;19.95;;;;;;;;;;10495065;28;20525;-86
2023/03/18 07:02:22;;;;;;;33.05;20.55;;;;;;;;;;10484276;28;20936;-86
2023/03/18 07:07:24;;;;;;;34.40;20.70;;;;;;;;;;10481618;28;20524;-86
2023/03/18 07:12:27;;;;;;;33.03;20.77;;;;;;;;;;10493149;28;20488;-87
2023/03/18 07:17:30;;;;;;;34.17;21.87;;;;;;;;;;10502619;28;20422;-85
2023/03/18 07:22:32;;;;;;;34.33;22.33;;;;;;;;;;10481356;28;20410;-85
2023/03/18 07:27:34;;;;;;;31.83;22.15;;;;;;;;;;10498070;28;20499;-83
2023/03/18 07:32:38;;;;;;;35.05;22.67;;;;;;;;;;10488766;28;20414;-87
2023/03/18 07:37:40;;;;;;;33.00;23.23;;;;;;;;;;10514193;28;20428;-82
2023/03/18 07:42:42;;;;;;;31.92;22.27;;;;;;;;;;10516920;28;20412;-83
2023/03/18 07:47:45;;;;;;;34.42;22.85;;;;;;;;;;10514384;28;20408;-83
2023/03/18 07:52:47;;;;;;;35.05;23.05;;;;;;;;;;10500416;28;20827;-84
2023/03/18 07:57:49;;;;;;;35.88;22.92;;;;;;;;;;10496814;28;20422;-84
2023/03/18 08:02:52;;;;;;;34.47;22.50;;;;;;;;;;10497242;28;20410;-87
2023/03/18 08:07:54;;;;;;;32.67;22.48;;;;;;;;;;10503931;28;20836;-84
2023/03/18 08:12:57;;;;;;;36.85;23.70;;;;;;;;;;10505407;28;20405;-84
2023/03/18 08:18:01;;;;;;;36.35;23.08;;;;;;;;;;10486094;28;20430;-84
2023/03/18 08:23:03;;;;;;;29.58;21.05;;;;;;;;;;10510325;28;20491;-84
2023/03/18 08:28:06;;;;;;;33.70;21.13;;;;;;;;;;10503586;28;20941;-84
2023/03/18 08:33:09;;;;;;;32.87;21.60;;;;;;;;;;10487972;28;20422;-84
2023/03/18 08:38:11;;;;;;;34.97;21.63;;;;;;;;;;10511389;28;20435;-85
2023/03/18 08:43:13;;;;;;;30.43;21.13;;;;;;;;;;10507019;28;20401;-84
2023/03/18 08:48:16;;;;;;;33.25;20.98;;;;;;;;;;10482842;28;20434;-84
2023/03/18 08:53:18;;;;;;;34.85;21.75;;;;;;;;;;10501572;28;20404;-85
2023/03/18 08:58:20;;;;;;;32.50;21.52;;;;;;;;;;10519311;28;20413;-85
2023/03/18 09:03:24;;;;;;;33.10;21.23;;;;;;;;;;10505926;28;20420;-83
2023/03/18 09:08:28;;;;;;;103.47;74.93;;;;;;;;;;10506780;28;20405;-85
2023/03/18 09:13:29;;;;;;;30.15;21.00;;;;;;;;;;10501362;28;20872;-85
2023/03/18 09:18:34;;;;;;;28.17;20.40;;;;;;;;;;10504878;28;20513;-84
2023/03/18 09:23:35;;;;;;;33.77;21.80;;;;;;;;;;10494581;28;20413;-84
2023/03/18 09:28:37;;;;;;;30.55;19.95;;;;;;;;;;10449179;22;20421;-85
2023/03/18 09:33:41;;;;;;;29.05;18.98;;;;;;;;;;10334342;28;20881;-85
2023/03/18 09:38:43;;;;;;;27.50;18.13;;;;;;;;;;10345044;28;20517;-79
2023/03/18 09:44:03;;;;;;;27.55;18.13;;;;;;;;;;10331759;28;20420;-85
2023/03/18 09:49:37;;;;;;;26.40;17.00;;;;;;;;;;10338059;28;20575;-86
2023/03/18 09:54:42;;;;;;;23.67;14.07;;;;;;;;;;10331262;28;20512;-85
2023/03/18 09:59:47;;;;;;;24.98;15.05;;;;;;;;;;10343239;28;20441;-85
2023/03/18 10:04:55;;;;;;;21.50;14.20;;;;;;;;;;10351621;28;20419;-84
2023/03/18 10:10:00;;;;;;;25.10;17.67;;;;;;;;;;10354971;28;20413;-85
2023/03/18 10:15:13;;;;;;;24.02;15.23;;;;;;;;;;10349635;28;20757;-83
2023/03/18 10:20:20;;;;;;;26.10;16.83;;;;;;;;;;10355084;28;20475;-85
2023/03/18 10:25:28;;;;;;;23.25;14.38;;;;;;;;;;10355073;28;20407;-86
2023/03/18 10:30:43;;;;;;;19.63;13.15;;;;;;;;;;10408271;28;20474;-85
2023/03/18 10:35:54;;;;;;;18.98;11.30;;;;;;;;;;10435734;28;20413;-86
2023/03/18 10:40:56;;;;;;;21.10;12.73;;;;;;;;;;10444479;28;20422;-85
2023/03/18 10:46:01;;;;;;;21.37;13.10;;;;;;;;;;10437883;28;20443;-85
2023/03/18 10:51:12;;;;;;;18.83;12.85;;;;;;;;;;10444265;28;20980;-85
2023/03/18 10:56:15;;;;;;;16.30;11.00;;;;;;;;;;10445062;28;20912;-84
2023/03/18 11:01:19;;;;;;;14.23;9.15;;;;;;;;;;10437003;28;20786;-84
2023/03/18 11:06:36;;;;;;;14.60;9.50;;;;;;;;;;10443262;28;20738;-84
2023/03/18 11:11:40;;;;;;;13.53;8.80;;;;;;;;;;10440979;28;20503;-84
2023/03/18 11:16:48;;;;;;;15.47;8.60;;;;;;;;;;10441501;28;20427;-86
2023/03/18 11:22:03;;;;;;;15.57;8.88;;;;;;;;;;10429058;28;21195;-86
2023/03/18 11:27:22;;;;;;;12.63;7.90;;;;;;;;;;10428428;28;20443;-85
2023/03/18 11:32:26;;;;;;;13.90;8.00;;;;;;;;;;10423011;28;20502;-86
2023/03/18 11:37:33;;;;;;;12.70;8.57;;;;;;;;;;10428511;28;20915;-85
2023/03/18 11:42:39;;;;;;;13.45;8.50;;;;;;;;;;10417356;28;20455;-85
2023/03/18 11:47:42;;;;;;;13.80;8.67;;;;;;;;;;10425844;28;20509;-86
2023/03/18 11:52:50;;;;;;;13.68;8.48;;;;;;;;;;10424117;28;20404;-86
2023/03/18 11:58:26;;;;;;;14.13;8.77;;;;;;;;;;10423901;28;20471;-86
2023/03/18 12:03:59;;;;;;;12.95;8.95;;;;;;;;;;10401295;28;20432;-85
2023/03/18 12:09:11;;;;;;;16.07;9.53;;;;;;;;;;10422106;28;20475;-86
2023/03/18 12:14:17;;;;;;;13.73;8.57;;;;;;;;;;10413738;28;20418;-84
2023/03/18 12:19:43;;;;;;;16.52;9.60;;;;;;;;;;10426603;28;20411;-84
2023/03/18 12:25:12;;;;;;;18.10;10.27;;;;;;;;;;10423215;28;20497;-84
2023/03/18 12:30:31;;;;;;;17.00;10.75;;;;;;;;;;10407073;28;20424;-85
2023/03/18 12:35:45;;;;;;;15.93;10.30;;;;;;;;;;10433839;28;20501;-84
2023/03/18 12:41:01;;;;;;;21.23;10.55;;;;;;;;;;10431662;28;20423;-84
2023/03/18 12:46:11;;;;;;;17.70;10.77;;;;;;;;;;10439339;28;20467;-87
2023/03/18 12:51:22;;;;;;;16.70;10.98;;;;;;;;;;10444434;28;20432;-87
2023/03/18 12:56:28;;;;;;;17.73;11.00;;;;;;;;;;10443946;28;20417;-87
2023/03/18 13:01:34;;;;;;;18.83;10.87;;;;;;;;;;10442650;28;20423;-88
2023/03/18 13:06:41;;;;;;;18.40;11.15;;;;;;;;;;10446634;28;20400;-86
2023/03/18 13:12:04;;;;;;;17.90;11.60;;;;;;;;;;10438925;28;20423;-87
2023/03/18 13:17:10;;;;;;;17.45;11.55;;;;;;;;;;10448580;28;20779;-87
2023/03/18 13:22:37;;;;;;;17.52;11.55;;;;;;;;;;10440498;28;20439;-87
2023/03/18 13:27:51;;;;;;;17.23;11.47;;;;;;;;;;10437131;28;20823;-86
2023/03/18 13:33:23;;;;;;;17.38;12.27;;;;;;;;;;10439409;28;20490;-88
2023/03/18 13:38:41;;;;;;;19.50;12.75;;;;;;;;;;10441412;28;20473;-88
2023/03/18 13:43:48;;;;;;;17.25;11.90;;;;;;;;;;10433402;28;20408;-87
2023/03/18 13:48:55;;;;;;;18.58;12.27;;;;;;;;;;10431632;28;20412;-88
2023/03/18 13:53:59;;;;;;;21.70;12.85;;;;;;;;;;10435812;28;20409;-88
2023/03/18 13:59:05;;;;;;;19.17;11.63;;;;;;;;;;10446131;28;20974;-90
2023/03/18 14:04:30;;;;;;;19.15;12.27;;;;;;;;;;10441110;28;20406;-89
2023/03/18 14:09:35;;;;;;;20.25;12.40;;;;;;;;;;10438557;28;20412;-90
2023/03/18 14:15:25;;;;;;;18.33;12.80;;;;;;;;;;10451224;28;20415;-90
2023/03/18 14:20:36;;;;;;;18.00;12.07;;;;;;;;;;10440341;28;20969;-89
2023/03/18 14:25:42;;;;;;;19.50;12.13;;;;;;;;;;10448220;28;20410;-90
2023/03/18 14:30:55;;;;;;;19.67;12.23;;;;;;;;;;10452413;28;20404;-89
2023/03/18 14:36:00;;;;;;;20.67;13.05;;;;;;;;;;10448848;28;20399;-89
2023/03/18 14:41:11;;;;;;;20.13;12.73;;;;;;;;;;10445786;28;20459;-83
2023/03/18 14:46:19;;;;;;;19.77;12.48;;;;;;;;;;10442835;28;20453;-83
2023/03/18 14:51:22;;;;;;;22.13;13.13;;;;;;;;;;10440525;28;20415;-83
2023/03/18 14:56:28;;;;;;;20.42;12.90;;;;;;;;;;10432377;28;20418;-83
2023/03/18 15:01:36;;;;;;;20.33;12.83;;;;;;;;;;10441021;28;20520;-84
2023/03/18 15:06:40;;;;;;;19.88;13.25;;;;;;;;;;10439607;28;20456;-83
2023/03/18 15:11:43;;;;;;;20.23;13.23;;;;;;;;;;10431703;28;20485;-83
2023/03/18 15:16:50;;;;;;;20.10;13.30;;;;;;;;;;10435635;28;20427;-83
2023/03/18 15:21:53;;;;;;;20.33;13.30;;;;;;;;;;10423139;28;20828;-82
2023/03/18 15:26:57;;;;;;;22.92;14.07;;;;;;;;;;10425876;28;20420;-83
2023/03/18 15:32:18;;;;;;;21.52;13.38;;;;;;;;;;10423670;28;20425;-83
2023/03/18 15:37:39;;;;;;;22.30;13.90;;;;;;;;;;10417650;28;20925;-84
2023/03/18 15:42:43;;;;;;;22.77;13.27;;;;;;;;;;10427053;28;20427;-78
2023/03/18 15:47:47;;;;;;;21.63;13.30;;;;;;;;;;10434590;28;20412;-83
2023/03/18 15:52:49;;;;;;;20.20;13.37;;;;;;;;;;10425648;28;20410;-85
2023/03/18 15:57:53;;;;;;;9.73;5.20;;;;;;;;;;10410876;28;20421;-83
2023/03/18 16:02:58;;;;;;;7.93;4.43;;;;;;;;;;10415845;28;20401;-84
2023/03/18 16:08:00;;;;;;;6.27;4.47;;;;;;;;;;10431707;28;20412;-84
2023/03/18 16:13:03;;;;;;;5.20;3.72;;;;;;;;;;10423503;28;20427;-85
2023/03/18 16:18:09;;;;;;;7.05;3.95;;;;;;;;;;10433907;28;20838;-83
2023/03/18 16:23:11;;;;;;;7.53;3.95;;;;;;;;;;10429661;28;20412;-84
2023/03/18 16:28:21;;;;;;;4.93;3.63;;;;;;;;;;10423921;28;20855;-84
2023/03/18 16:33:25;;;;;;;7.43;4.00;;;;;;;;;;10416605;28;21028;-84
2023/03/18 16:38:28;;;;;;;9.18;4.00;;;;;;;;;;10408050;28;20433;-83
2023/03/18 16:43:32;;;;;;;7.30;4.10;;;;;;;;;;10429818;28;20420;-85
2023/03/18 16:48:35;;;;;;;5.88;3.70;;;;;;;;;;10422689;28;21150;-85
2023/03/18 16:53:37;;;;;;;6.47;4.20;;;;;;;;;;10414646;28;20782;-88
2023/03/18 16:58:39;;;;;;;8.07;4.80;;;;;;;;;;10435922;28;20957;-88
2023/03/18 17:03:44;;;;;;;6.77;4.30;;;;;;;;;;10437805;28;20522;-88
2023/03/18 17:08:46;;;;;;;7.50;4.93;;;;;;;;;;10437608;28;20411;-89
2023/03/18 17:13:48;;;;;;;9.20;5.30;;;;;;;;;;10439986;28;20419;-90
2023/03/18 17:18:51;;;;;;;9.27;5.25;;;;;;;;;;10440781;28;20424;-90
2023/03/18 17:23:53;;;;;;;13.77;7.40;;;;;;;;;;10440795;28;20901;-88
2023/03/18 17:28:57;;;;;;;14.57;7.10;;;;;;;;;;10451092;28;20511;-89
2023/03/18 17:34:00;;;;;;;10.40;6.43;;;;;;;;;;10450551;28;20421;-88
2023/03/18 17:39:03;;;;;;;13.03;6.63;;;;;;;;;;10439288;28;20433;-89
2023/03/18 17:44:22;;;;;;;13.57;7.83;;;;;;;;;;10433096;28;20409;-91
2023/03/18 17:49:27;;;;;;;16.50;8.13;;;;;;;;;;10440309;28;20405;-90
2023/03/18 17:54:30;;;;;;;12.90;8.00;;;;;;;;;;10445223;28;20499;-90
2023/03/18 17:59:32;;;;;;;12.25;8.50;;;;;;;;;;10443582;28;20451;-89
2023/03/18 18:04:37;;;;;;;14.88;9.35;;;;;;;;;;10441781;28;20415;-90
2023/03/18 18:09:40;;;;;;;10.13;7.40;;;;;;;;;;10444884;28;20408;-90
2023/03/18 18:14:41;;;;;;;11.10;6.88;;;;;;;;;;10458658;28;20929;-90
2023/03/18 18:19:45;;;;;;;10.07;6.60;;;;;;;;;;10446478;28;20476;-90
2023/03/18 18:24:47;;;;;;;9.97;6.20;;;;;;;;;;10447864;28;20941;-90
2023/03/18 18:29:49;;;;;;;13.40;6.80;;;;;;;;;;10442876;28;20498;-88
2023/03/18 18:34:53;;;;;;;10.50;6.32;;;;;;;;;;10451099;28;20399;-89
2023/03/18 18:39:55;;;;;;;8.57;6.07;;;;;;;;;;10440312;28;20515;-89
2023/03/18 18:44:57;;;;;;;10.23;6.88;;;;;;;;;;10441980;28;20477;-90
2023/03/18 18:50:00;;;;;;;9.43;6.70;;;;;;;;;;10445194;28;20805;-90
2023/03/18 18:55:02;;;;;;;11.43;7.85;;;;;;;;;;10449545;28;20404;-90
2023/03/18 19:00:10;;;;;;;12.67;8.40;;;;;;;;;;10452106;28;20417;-90
2023/03/18 19:05:15;;;;;;;17.42;11.32;;;;;;;;;;10442618;28;20478;-90
2023/03/18 19:10:17;;;;;;;17.60;11.40;;;;;;;;;;10451191;28;20735;-90
2023/03/18 19:15:20;;;;;;;17.90;11.45;;;;;;;;;;10445015;28;20416;-90
2023/03/18 19:20:29;;;;;;;14.65;10.30;;;;;;;;;;10441189;28;20423;-90
2023/03/18 19:25:32;;;;;;;17.13;12.30;;;;;;;;;;10457759;28;20457;-90
2023/03/18 19:30:34;;;;;;;14.40;10.57;;;;;;;;;;10448792;28;20433;-90
2023/03/18 19:35:40;;;;;;;14.82;10.30;;;;;;;;;;10439941;28;20436;-89
2023/03/18 19:40:42;;;;;;;17.60;11.45;;;;;;;;;;10452924;28;20424;-89
2023/03/18 19:45:46;;;;;;;15.82;10.65;;;;;;;;;;10451698;28;20526;-90
2023/03/18 19:50:49;;;;;;;11.20;8.13;;;;;;;;;;10446670;28;20395;-90
2023/03/18 19:55:51;;;;;;;13.67;10.70;;;;;;;;;;10445053;28;20486;-90
2023/03/18 20:00:54;;;;;;;15.77;11.25;;;;;;;;;;10449418;28;20820;-89
2023/03/18 20:05:59;;;;;;;17.83;12.13;;;;;;;;;;10452547;28;20408;-90
2023/03/18 20:11:01;;;;;;;24.35;13.43;;;;;;;;;;10451628;28;20400;-90
2023/03/18 20:16:03;;;;;;;13.70;9.27;;;;;;;;;;10449721;28;20910;-89
2023/03/18 20:21:09;;;;;;;15.43;9.87;;;;;;;;;;10445276;28;20415;-89
2023/03/18 20:26:11;;;;;;;18.08;11.23;;;;;;;;;;10450984;28;20443;-89
2023/03/18 20:31:13;;;;;;;17.83;11.57;;;;;;;;;;10449244;28;20503;-90
2023/03/18 20:36:18;;;;;;;20.33;13.50;;;;;;;;;;10447937;28;20400;-90
2023/03/18 20:41:20;;;;;;;19.97;13.40;;;;;;;;;;10433711;28;20456;-89
2023/03/18 20:46:22;;;;;;;18.00;13.50;;;;;;;;;;10443816;28;20429;-89
2023/03/18 20:51:32;;;;;;;23.00;14.10;;;;;;;;;;10439682;28;20400;-90
2023/03/18 20:56:34;;;;;;;25.80;16.77;;;;;;;;;;10443980;28;20415;-89
2023/03/18 21:01:36;;;;;;;25.37;17.00;;;;;;;;;;10456380;28;20423;-91
2023/03/18 21:06:40;;;;;;;24.13;16.87;;;;;;;;;;10453453;28;20407;-89
2023/03/18 21:11:41;;;;;;;22.50;15.10;;;;;;;;;;10442190;28;20411;-90
2023/03/18 21:16:43;;;;;;;21.65;14.80;;;;;;;;;;10436781;28;20408;-90
2023/03/18 21:21:46;;;;;;;24.52;15.68;;;;;;;;;;10442792;28;20855;-89
2023/03/18 21:26:48;;;;;;;18.67;13.45;;;;;;;;;;10454841;28;20403;-90
2023/03/18 21:31:51;;;;;;;26.13;14.80;;;;;;;;;;10446226;28;20415;-90
2023/03/18 21:36:54;;;;;;;21.80;14.20;;;;;;;;;;10422967;28;20448;-89
2023/03/18 21:41:57;;;;;;;21.57;14.80;;;;;;;;;;10441234;28;20477;-89
2023/03/18 21:47:00;;;;;;;19.48;13.90;;;;;;;;;;10445329;28;20422;-89
2023/03/18 21:52:03;;;;;;;23.73;16.07;;;;;;;;;;10440144;28;20413;-90
2023/03/18 21:57:05;;;;;;;22.90;15.98;;;;;;;;;;10451506;28;20403;-90
2023/03/18 22:02:20;;;;;;;22.67;16.97;;;;;;;;;;10444096;28;20455;-90
2023/03/18 22:07:23;;;;;;;25.60;17.80;;;;;;;;;;10452338;28;20766;-91
2023/03/18 22:12:27;;;;;;;32.90;21.13;;;;;;;;;;10449290;28;20425;-90
2023/03/18 22:17:31;;;;;;;35.43;21.23;;;;;;;;;;10447473;28;20445;-90
2023/03/18 22:22:36;;;;;;;33.97;21.40;;;;;;;;;;10441958;28;20454;-90
2023/03/18 22:27:38;;;;;;;32.75;21.58;;;;;;;;;;10439819;28;20473;-90
2023/03/18 22:32:42;;;;;;;32.60;20.80;;;;;;;;;;10456689;28;20501;-90
2023/03/18 22:37:46;;;;;;;31.88;21.00;;;;;;;;;;10453048;28;20825;-90
2023/03/18 22:42:49;;;;;;;29.00;20.47;;;;;;;;;;10455791;28;20423;-90
2023/03/18 22:47:52;;;;;;;32.30;20.45;;;;;;;;;;10453050;28;20458;-90
2023/03/18 22:53:00;;;;;;;30.00;21.75;;;;;;;;;;10454060;28;20820;-90
2023/03/18 22:58:01;;;;;;;29.08;20.38;;;;;;;;;;10459352;28;20446;-90
2023/03/18 23:03:10;;;;;;;30.23;20.38;;;;;;;;;;10439976;28;20640;-89
2023/03/18 23:08:13;;;;;;;30.45;20.48;;;;;;;;;;10443199;28;20902;-88
2023/03/18 23:13:18;;;;;;;32.03;21.30;;;;;;;;;;10451728;28;20428;-88
2023/03/18 23:18:20;;;;;;;30.13;20.80;;;;;;;;;;10444078;28;20412;-88
2023/03/18 23:23:23;;;;;;;30.07;20.10;;;;;;;;;;10446102;28;20426;-88
2023/03/18 23:28:27;;;;;;;30.30;21.17;;;;;;;;;;10442872;28;20455;-89
2023/03/18 23:33:29;;;;;;;30.15;20.40;;;;;;;;;;10436000;28;20421;-89
2023/03/18 23:38:33;;;;;;;28.42;19.55;;;;;;;;;;10447078;28;20412;-88
2023/03/18 23:43:35;;;;;;;29.40;20.27;;;;;;;;;;10450248;28;20412;-90
2023/03/18 23:48:37;;;;;;;31.85;19.95;;;;;;;;;;10450078;28;20413;-89
2023/03/18 23:53:40;;;;;;;28.77;18.70;;;;;;;;;;10433708;28;20411;-89
2023/03/18 23:58:42;;;;;;;25.75;17.52;;;;;;;;;;10441379;28;20415;-89
